sensor_id;sensor_type;location;lat;lon;timestamp;temperature;humidity
2174;DHT22;1093;51.424;11.764;2023-07-22T00:02:08;16.10;1.40
2174;DHT22;1093;51.424;11.764;2023-07-22T00:04:36;16.10;1.40
2174;DHT22;1093;51.424;11.764;2023-07-22T00:07:03;16.00;1.40
2174;DHT22;1093;51.424;11.764;2023-07-22T00:09:34;16.00;1.40
2174;DHT22;1093;51.424;11.764;2023-07-22T00:12:01;16.00;1.40
2174;DHT22;1093;51.424;11.764;2023-07-22T00:14:28;16.00;1.40
2174;DHT22;1093;51.424;11.764;2023-07-22T00:16:55;15.90;1.40
2174;DHT22;1093;51.424;11.764;2023-07-22T00:19:23;15.90;1.40
2174;DHT22;1093;51.424;11.764;2023-07-22T00:21:50;15.90;1.40
2174;DHT22;1093;51.424;11.764;2023-07-22T00:24:17;15.90;1.40
2174;DHT22;1093;51.424;11.764;2023-07-22T00:26:45;15.80;1.40
2174;DHT22;1093;51.424;11.764;2023-07-22T00:29:12;15.90;1.40
2174;DHT22;1093;51.424;11.764;2023-07-22T00:31:39;15.80;1.40
2174;DHT22;1093;51.424;11.764;2023-07-22T00:34:07;15.80;1.40
2174;DHT22;1093;51.424;11.764;2023-07-22T00:36:33;15.90;1.40
2174;DHT22;1093;51.424;11.764;2023-07-22T00:39:00;15.80;1.40
2174;DHT22;1093;51.424;11.764;2023-07-22T00:41:27;15.80;1.40
2174;DHT22;1093;51.424;11.764;2023-07-22T00:43:57;15.70;1.40
2174;DHT22;1093;51.424;11.764;2023-07-22T00:46:23;15.70;1.40
2174;DHT22;1093;51.424;11.764;2023-07-22T00:48:50;15.70;1.40
2174;DHT22;1093;51.424;11.764;2023-07-22T00:51:17;15.70;1.40
2174;DHT22;1093;51.424;11.764;2023-07-22T00:53:45;15.60;1.40
2174;DHT22;1093;51.424;11.764;2023-07-22T00:56:12;15.60;1.40
2174;DHT22;1093;51.424;11.764;2023-07-22T00:58:39;15.60;1.40
2174;DHT22;1093;51.424;11.764;2023-07-22T01:01:07;15.50;1.40
2174;DHT22;1093;51.424;11.764;2023-07-22T01:03:34;15.50;1.40
2174;DHT22;1093;51.424;11.764;2023-07-22T01:06:01;15.50;1.40
2174;DHT22;1093;51.424;11.764;2023-07-22T01:08:29;15.40;1.40
2174;DHT22;1093;51.424;11.764;2023-07-22T01:10:55;15.40;1.40
2174;DHT22;1093;51.424;11.764;2023-07-22T01:13:22;15.40;1.40
2174;DHT22;1093;51.424;11.764;2023-07-22T01:15:49;15.40;1.40
2174;DHT22;1093;51.424;11.764;2023-07-22T01:18:18;15.30;1.40
2174;DHT22;1093;51.424;11.764;2023-07-22T01:20:46;15.30;1.40
2174;DHT22;1093;51.424;11.764;2023-07-22T01:23:14;15.20;1.40
2174;DHT22;1093;51.424;11.764;2023-07-22T01:25:43;15.20;1.40
2174;DHT22;1093;51.424;11.764;2023-07-22T01:28:10;15.10;1.40
2174;DHT22;1093;51.424;11.764;2023-07-22T01:30:37;15.10;1.40
2174;DHT22;1093;51.424;11.764;2023-07-22T01:33:05;15.10;1.40
2174;DHT22;1093;51.424;11.764;2023-07-22T01:35:32;15.10;1.40
2174;DHT22;1093;51.424;11.764;2023-07-22T01:37:59;15.00;1.40
2174;DHT22;1093;51.424;11.764;2023-07-22T01:40:27;15.00;1.40
2174;DHT22;1093;51.424;11.764;2023-07-22T01:42:54;15.00;1.40
2174;DHT22;1093;51.424;11.764;2023-07-22T01:45:21;15.00;1.40
2174;DHT22;1093;51.424;11.764;2023-07-22T01:47:47;15.00;1.40
2174;DHT22;1093;51.424;11.764;2023-07-22T01:50:14;15.00;1.40
2174;DHT22;1093;51.424;11.764;2023-07-22T01:52:42;14.90;1.40
2174;DHT22;1093;51.424;11.764;2023-07-22T01:55:09;15.00;1.40
2174;DHT22;1093;51.424;11.764;2023-07-22T01:57:38;15.00;1.40
2174;DHT22;1093;51.424;11.764;2023-07-22T02:00:06;15.00;1.40
2174;DHT22;1093;51.424;11.764;2023-07-22T02:02:36;15.00;1.40
2174;DHT22;1093;51.424;11.764;2023-07-22T02:05:03;15.00;1.40
2174;DHT22;1093;51.424;11.764;2023-07-22T02:07:30;15.00;1.40
2174;DHT22;1093;51.424;11.764;2023-07-22T02:09:57;15.00;1.40
2174;DHT22;1093;51.424;11.764;2023-07-22T02:12:24;15.00;1.40
2174;DHT22;1093;51.424;11.764;2023-07-22T02:14:52;15.00;1.40
2174;DHT22;1093;51.424;11.764;2023-07-22T02:17:19;15.00;1.40
2174;DHT22;1093;51.424;11.764;2023-07-22T02:19:47;15.00;1.40
2174;DHT22;1093;51.424;11.764;2023-07-22T02:22:13;15.00;1.40
2174;DHT22;1093;51.424;11.764;2023-07-22T02:24:40;15.00;1.40
2174;DHT22;1093;51.424;11.764;2023-07-22T02:27:07;15.00;1.40
2174;DHT22;1093;51.424;11.764;2023-07-22T02:29:34;15.00;1.40
2174;DHT22;1093;51.424;11.764;2023-07-22T02:32:04;15.00;1.40
2174;DHT22;1093;51.424;11.764;2023-07-22T02:34:31;15.00;1.40
2174;DHT22;1093;51.424;11.764;2023-07-22T02:36:58;15.00;1.40
2174;DHT22;1093;51.424;11.764;2023-07-22T02:39:25;15.00;1.40
2174;DHT22;1093;51.424;11.764;2023-07-22T02:41:52;15.00;1.40
2174;DHT22;1093;51.424;11.764;2023-07-22T02:44:18;15.00;1.40
2174;DHT22;1093;51.424;11.764;2023-07-22T02:46:45;15.00;1.40
2174;DHT22;1093;51.424;11.764;2023-07-22T02:49:14;15.00;1.40
2174;DHT22;1093;51.424;11.764;2023-07-22T02:51:40;15.10;1.40
2174;DHT22;1093;51.424;11.764;2023-07-22T02:54:07;15.00;1.40
2174;DHT22;1093;51.424;11.764;2023-07-22T02:56:34;15.00;1.40
2174;DHT22;1093;51.424;11.764;2023-07-22T02:59:01;15.00;1.40
2174;DHT22;1093;51.424;11.764;2023-07-22T03:01:28;15.00;1.40
2174;DHT22;1093;51.424;11.764;2023-07-22T03:03:56;15.00;1.40
2174;DHT22;1093;51.424;11.764;2023-07-22T03:06:25;14.90;1.40
2174;DHT22;1093;51.424;11.764;2023-07-22T03:08:52;14.90;1.40
2174;DHT22;1093;51.424;11.764;2023-07-22T03:11:19;14.90;1.40
2174;DHT22;1093;51.424;11.764;2023-07-22T03:13:50;14.80;1.40
2174;DHT22;1093;51.424;11.764;2023-07-22T03:16:17;14.80;1.40
2174;DHT22;1093;51.424;11.764;2023-07-22T03:18:44;14.80;1.40
2174;DHT22;1093;51.424;11.764;2023-07-22T03:21:11;14.70;1.40
2174;DHT22;1093;51.424;11.764;2023-07-22T03:23:39;14.70;1.40
2174;DHT22;1093;51.424;11.764;2023-07-22T03:26:06;14.70;1.40
2174;DHT22;1093;51.424;11.764;2023-07-22T03:28:33;14.70;1.40
2174;DHT22;1093;51.424;11.764;2023-07-22T03:31:00;14.60;1.40
2174;DHT22;1093;51.424;11.764;2023-07-22T03:33:27;14.60;1.40
2174;DHT22;1093;51.424;11.764;2023-07-22T03:35:54;14.60;1.40
2174;DHT22;1093;51.424;11.764;2023-07-22T03:38:21;14.50;1.40
2174;DHT22;1093;51.424;11.764;2023-07-22T03:40:49;14.50;1.40
2174;DHT22;1093;51.424;11.764;2023-07-22T03:43:18;14.50;1.40
2174;DHT22;1093;51.424;11.764;2023-07-22T03:45:45;14.50;1.40
2174;DHT22;1093;51.424;11.764;2023-07-22T03:48:12;14.40;1.40
2174;DHT22;1093;51.424;11.764;2023-07-22T03:50:39;14.40;1.40
2174;DHT22;1093;51.424;11.764;2023-07-22T03:53:06;14.40;1.40
2174;DHT22;1093;51.424;11.764;2023-07-22T03:55:33;14.40;1.40
2174;DHT22;1093;51.424;11.764;2023-07-22T03:58:02;14.40;1.40
2174;DHT22;1093;51.424;11.764;2023-07-22T04:00:30;14.30;1.40
2174;DHT22;1093;51.424;11.764;2023-07-22T04:02:57;14.30;1.40
2174;DHT22;1093;51.424;11.764;2023-07-22T04:05:24;14.30;1.40
2174;DHT22;1093;51.424;11.764;2023-07-22T04:07:50;14.30;1.40
2174;DHT22;1093;51.424;11.764;2023-07-22T04:10:17;14.20;1.40
2174;DHT22;1093;51.424;11.764;2023-07-22T04:12:44;14.20;1.40
2174;DHT22;1093;51.424;11.764;2023-07-22T04:15:12;14.10;1.40
2174;DHT22;1093;51.424;11.764;2023-07-22T04:17:40;14.10;1.40
2174;DHT22;1093;51.424;11.764;2023-07-22T04:20:08;14.10;1.40
2174;DHT22;1093;51.424;11.764;2023-07-22T04:22:35;14.00;1.40
2174;DHT22;1093;51.424;11.764;2023-07-22T04:25:02;14.00;1.40
2174;DHT22;1093;51.424;11.764;2023-07-22T04:27:30;14.00;1.40
2174;DHT22;1093;51.424;11.764;2023-07-22T04:29:57;14.00;1.40
2174;DHT22;1093;51.424;11.764;2023-07-22T04:32:25;14.00;1.40
2174;DHT22;1093;51.424;11.764;2023-07-22T04:34:52;14.00;1.40
2174;DHT22;1093;51.424;11.764;2023-07-22T04:37:20;14.00;1.40
2174;DHT22;1093;51.424;11.764;2023-07-22T04:39:48;14.00;1.40
2174;DHT22;1093;51.424;11.764;2023-07-22T04:42:16;14.00;1.40
2174;DHT22;1093;51.424;11.764;2023-07-22T04:44:43;14.00;1.40
2174;DHT22;1093;51.424;11.764;2023-07-22T04:47:10;14.00;1.40
2174;DHT22;1093;51.424;11.764;2023-07-22T04:49:39;14.00;1.40
2174;DHT22;1093;51.424;11.764;2023-07-22T04:52:07;14.00;1.40
2174;DHT22;1093;51.424;11.764;2023-07-22T04:54:34;14.00;1.40
2174;DHT22;1093;51.424;11.764;2023-07-22T04:57:01;14.00;1.40
2174;DHT22;1093;51.424;11.764;2023-07-22T04:59:28;14.10;1.40
2174;DHT22;1093;51.424;11.764;2023-07-22T05:01:55;14.10;1.40
2174;DHT22;1093;51.424;11.764;2023-07-22T05:04:22;14.20;1.40
2174;DHT22;1093;51.424;11.764;2023-07-22T05:06:51;14.30;1.40
2174;DHT22;1093;51.424;11.764;2023-07-22T05:09:17;14.40;1.40
2174;DHT22;1093;51.424;11.764;2023-07-22T05:11:44;14.50;1.40
2174;DHT22;1093;51.424;11.764;2023-07-22T05:14:11;14.70;1.40
2174;DHT22;1093;51.424;11.764;2023-07-22T05:16:38;14.80;1.40
2174;DHT22;1093;51.424;11.764;2023-07-22T05:19:05;15.00;1.40
2174;DHT22;1093;51.424;11.764;2023-07-22T05:21:33;15.10;1.40
2174;DHT22;1093;51.424;11.764;2023-07-22T05:24:02;15.30;1.40
2174;DHT22;1093;51.424;11.764;2023-07-22T05:26:29;15.50;1.40
2174;DHT22;1093;51.424;11.764;2023-07-22T05:28:56;15.70;1.40
2174;DHT22;1093;51.424;11.764;2023-07-22T05:31:23;15.90;1.40
2174;DHT22;1093;51.424;11.764;2023-07-22T05:33:50;16.00;1.40
2174;DHT22;1093;51.424;11.764;2023-07-22T05:36:17;16.20;1.40
2174;DHT22;1093;51.424;11.764;2023-07-22T05:38:44;16.40;1.40
2174;DHT22;1093;51.424;11.764;2023-07-22T05:41:12;16.60;1.40
2174;DHT22;1093;51.424;11.764;2023-07-22T05:43:39;16.80;1.40
2174;DHT22;1093;51.424;11.764;2023-07-22T05:46:06;17.00;1.40
2174;DHT22;1093;51.424;11.764;2023-07-22T05:48:33;17.20;1.40
2174;DHT22;1093;51.424;11.764;2023-07-22T05:51:00;17.30;1.40
2174;DHT22;1093;51.424;11.764;2023-07-22T05:53:27;17.50;1.40
2174;DHT22;1093;51.424;11.764;2023-07-22T05:55:54;17.60;1.40
2174;DHT22;1093;51.424;11.764;2023-07-22T05:58:22;17.70;1.40
2174;DHT22;1093;51.424;11.764;2023-07-22T06:00:49;17.80;1.40
2174;DHT22;1093;51.424;11.764;2023-07-22T06:03:17;17.90;1.40
2174;DHT22;1093;51.424;11.764;2023-07-22T06:05:43;18.00;1.40
2174;DHT22;1093;51.424;11.764;2023-07-22T06:08:10;18.00;1.40
2174;DHT22;1093;51.424;11.764;2023-07-22T06:10:40;18.00;1.40
2174;DHT22;1093;51.424;11.764;2023-07-22T06:13:07;18.10;1.40
2174;DHT22;1093;51.424;11.764;2023-07-22T06:15:35;18.20;1.40
2174;DHT22;1093;51.424;11.764;2023-07-22T06:18:02;18.20;1.40
2174;DHT22;1093;51.424;11.764;2023-07-22T06:20:33;18.30;1.40
2174;DHT22;1093;51.424;11.764;2023-07-22T06:23:01;18.30;1.40
2174;DHT22;1093;51.424;11.764;2023-07-22T06:25:28;18.30;1.40
2174;DHT22;1093;51.424;11.764;2023-07-22T06:27:54;18.40;1.40
2174;DHT22;1093;51.424;11.764;2023-07-22T06:30:21;18.40;1.40
2174;DHT22;1093;51.424;11.764;2023-07-22T06:32:50;18.30;1.40
2174;DHT22;1093;51.424;11.764;2023-07-22T06:35:17;18.30;1.40
2174;DHT22;1093;51.424;11.764;2023-07-22T06:37:44;18.30;1.40
2174;DHT22;1093;51.424;11.764;2023-07-22T06:40:11;18.30;1.40
2174;DHT22;1093;51.424;11.764;2023-07-22T06:42:38;18.30;1.40
2174;DHT22;1093;51.424;11.764;2023-07-22T06:45:05;18.40;1.40
2174;DHT22;1093;51.424;11.764;2023-07-22T06:47:32;18.30;1.40
2174;DHT22;1093;51.424;11.764;2023-07-22T06:50:02;18.40;1.40
2174;DHT22;1093;51.424;11.764;2023-07-22T06:52:29;18.50;1.40
2174;DHT22;1093;51.424;11.764;2023-07-22T06:54:57;18.60;1.40
2174;DHT22;1093;51.424;11.764;2023-07-22T06:57:23;18.60;1.40
2174;DHT22;1093;51.424;11.764;2023-07-22T06:59:53;18.60;1.40
2174;DHT22;1093;51.424;11.764;2023-07-22T07:02:19;18.60;1.40
2174;DHT22;1093;51.424;11.764;2023-07-22T07:04:46;18.60;1.40
2174;DHT22;1093;51.424;11.764;2023-07-22T07:07:15;18.60;1.40
2174;DHT22;1093;51.424;11.764;2023-07-22T07:09:42;18.70;1.40
2174;DHT22;1093;51.424;11.764;2023-07-22T07:12:09;18.80;1.40
2174;DHT22;1093;51.424;11.764;2023-07-22T07:14:36;18.80;1.40
2174;DHT22;1093;51.424;11.764;2023-07-22T07:17:04;18.90;1.40
2174;DHT22;1093;51.424;11.764;2023-07-22T07:19:30;18.90;1.40
2174;DHT22;1093;51.424;11.764;2023-07-22T07:21:57;18.90;1.40
2174;DHT22;1093;51.424;11.764;2023-07-22T07:24:25;19.00;1.40
2174;DHT22;1093;51.424;11.764;2023-07-22T07:26:53;19.10;1.40
2174;DHT22;1093;51.424;11.764;2023-07-22T07:29:20;19.10;1.40
2174;DHT22;1093;51.424;11.764;2023-07-22T07:31:47;19.10;1.40
2174;DHT22;1093;51.424;11.764;2023-07-22T07:34:14;19.20;1.40
2174;DHT22;1093;51.424;11.764;2023-07-22T07:36:40;19.20;1.40
2174;DHT22;1093;51.424;11.764;2023-07-22T07:39:07;19.30;1.40
2174;DHT22;1093;51.424;11.764;2023-07-22T07:41:36;19.40;1.40
2174;DHT22;1093;51.424;11.764;2023-07-22T07:44:04;19.50;1.40
2174;DHT22;1093;51.424;11.764;2023-07-22T07:46:31;19.60;1.40
2174;DHT22;1093;51.424;11.764;2023-07-22T07:48:59;19.70;1.40
2174;DHT22;1093;51.424;11.764;2023-07-22T07:51:27;19.80;1.40
2174;DHT22;1093;51.424;11.764;2023-07-22T07:53:56;20.00;1.40
2174;DHT22;1093;51.424;11.764;2023-07-22T07:56:23;20.10;1.40
2174;DHT22;1093;51.424;11.764;2023-07-22T07:58:53;20.10;1.40
2174;DHT22;1093;51.424;11.764;2023-07-22T08:01:20;20.10;1.40
2174;DHT22;1093;51.424;11.764;2023-07-22T08:03:47;20.10;1.40
2174;DHT22;1093;51.424;11.764;2023-07-22T08:06:14;20.20;1.40
2174;DHT22;1093;51.424;11.764;2023-07-22T08:08:41;20.20;1.40
2174;DHT22;1093;51.424;11.764;2023-07-22T08:11:10;20.30;1.40
2174;DHT22;1093;51.424;11.764;2023-07-22T08:13:38;20.40;1.40
2174;DHT22;1093;51.424;11.764;2023-07-22T08:16:08;20.50;1.40
2174;DHT22;1093;51.424;11.764;2023-07-22T08:18:36;20.50;1.40
2174;DHT22;1093;51.424;11.764;2023-07-22T08:21:04;20.50;1.40
2174;DHT22;1093;51.424;11.764;2023-07-22T08:23:32;20.60;1.40
2174;DHT22;1093;51.424;11.764;2023-07-22T08:25:59;20.70;1.40
2174;DHT22;1093;51.424;11.764;2023-07-22T08:28:27;20.80;1.40
2174;DHT22;1093;51.424;11.764;2023-07-22T08:30:54;20.80;1.40
2174;DHT22;1093;51.424;11.764;2023-07-22T08:33:23;21.00;1.40
2174;DHT22;1093;51.424;11.764;2023-07-22T08:35:51;21.00;1.40
2174;DHT22;1093;51.424;11.764;2023-07-22T08:38:18;21.00;1.40
2174;DHT22;1093;51.424;11.764;2023-07-22T08:40:48;21.10;1.40
2174;DHT22;1093;51.424;11.764;2023-07-22T08:43:20;21.10;1.40
2174;DHT22;1093;51.424;11.764;2023-07-22T08:45:48;21.10;1.40
2174;DHT22;1093;51.424;11.764;2023-07-22T08:48:16;21.10;1.40
2174;DHT22;1093;51.424;11.764;2023-07-22T08:50:49;21.10;1.40
2174;DHT22;1093;51.424;11.764;2023-07-22T08:53:16;21.10;1.40
2174;DHT22;1093;51.424;11.764;2023-07-22T08:55:45;21.10;1.40
2174;DHT22;1093;51.424;11.764;2023-07-22T08:58:13;21.20;1.40
2174;DHT22;1093;51.424;11.764;2023-07-22T09:00:40;21.20;1.40
2174;DHT22;1093;51.424;11.764;2023-07-22T09:03:08;21.20;1.40
2174;DHT22;1093;51.424;11.764;2023-07-22T09:05:47;21.20;1.40
2174;DHT22;1093;51.424;11.764;2023-07-22T09:08:15;21.30;1.40
2174;DHT22;1093;51.424;11.764;2023-07-22T09:10:43;21.40;1.40
2174;DHT22;1093;51.424;11.764;2023-07-22T09:13:11;21.60;1.40
2174;DHT22;1093;51.424;11.764;2023-07-22T09:15:39;21.60;1.40
2174;DHT22;1093;51.424;11.764;2023-07-22T09:18:06;21.70;1.40
2174;DHT22;1093;51.424;11.764;2023-07-22T09:20:33;21.80;1.40
2174;DHT22;1093;51.424;11.764;2023-07-22T09:23:02;21.90;1.40
2174;DHT22;1093;51.424;11.764;2023-07-22T09:25:29;21.90;1.40
2174;DHT22;1093;51.424;11.764;2023-07-22T09:27:59;22.00;1.40
2174;DHT22;1093;51.424;11.764;2023-07-22T09:30:27;22.10;1.40
2174;DHT22;1093;51.424;11.764;2023-07-22T09:32:55;22.20;1.40
2174;DHT22;1093;51.424;11.764;2023-07-22T09:35:24;22.30;1.40
2174;DHT22;1093;51.424;11.764;2023-07-22T09:37:53;22.40;1.40
2174;DHT22;1093;51.424;11.764;2023-07-22T09:40:23;22.50;1.40
2174;DHT22;1093;51.424;11.764;2023-07-22T09:42:51;22.70;1.40
2174;DHT22;1093;51.424;11.764;2023-07-22T09:45:19;22.70;1.40
2174;DHT22;1093;51.424;11.764;2023-07-22T09:47:49;22.70;1.40
2174;DHT22;1093;51.424;11.764;2023-07-22T09:50:18;22.90;1.40
2174;DHT22;1093;51.424;11.764;2023-07-22T09:52:46;23.00;1.40
2174;DHT22;1093;51.424;11.764;2023-07-22T09:55:18;23.00;1.40
2174;DHT22;1093;51.424;11.764;2023-07-22T09:57:50;23.10;1.40
2174;DHT22;1093;51.424;11.764;2023-07-22T10:00:17;23.20;1.40
2174;DHT22;1093;51.424;11.764;2023-07-22T10:02:47;23.20;1.40
2174;DHT22;1093;51.424;11.764;2023-07-22T10:05:15;23.20;1.40
2174;DHT22;1093;51.424;11.764;2023-07-22T10:07:44;23.20;1.40
2174;DHT22;1093;51.424;11.764;2023-07-22T10:10:12;23.30;1.40
2174;DHT22;1093;51.424;11.764;2023-07-22T10:12:41;23.30;1.40
2174;DHT22;1093;51.424;11.764;2023-07-22T10:15:12;23.20;1.40
2174;DHT22;1093;51.424;11.764;2023-07-22T10:17:40;23.20;1.40
2174;DHT22;1093;51.424;11.764;2023-07-22T10:20:07;23.20;1.40
2174;DHT22;1093;51.424;11.764;2023-07-22T10:22:36;23.30;1.40
2174;DHT22;1093;51.424;11.764;2023-07-22T10:25:07;23.30;1.40
2174;DHT22;1093;51.424;11.764;2023-07-22T10:27:35;23.20;1.40
2174;DHT22;1093;51.424;11.764;2023-07-22T10:30:05;23.20;1.40
2174;DHT22;1093;51.424;11.764;2023-07-22T10:32:35;23.20;1.40
2174;DHT22;1093;51.424;11.764;2023-07-22T10:35:03;23.20;1.40
2174;DHT22;1093;51.424;11.764;2023-07-22T10:37:31;23.20;1.40
2174;DHT22;1093;51.424;11.764;2023-07-22T10:40:15;23.20;1.40
2174;DHT22;1093;51.424;11.764;2023-07-22T10:42:51;23.20;1.40
2174;DHT22;1093;51.424;11.764;2023-07-22T10:45:28;23.20;1.40
2174;DHT22;1093;51.424;11.764;2023-07-22T10:48:06;23.30;1.40
2174;DHT22;1093;51.424;11.764;2023-07-22T10:50:41;23.40;1.40
2174;DHT22;1093;51.424;11.764;2023-07-22T10:53:10;23.60;1.40
2174;DHT22;1093;51.424;11.764;2023-07-22T10:56:02;23.60;1.40
2174;DHT22;1093;51.424;11.764;2023-07-22T10:58:30;23.70;1.40
2174;DHT22;1093;51.424;11.764;2023-07-22T11:00:57;23.70;1.40
2174;DHT22;1093;51.424;11.764;2023-07-22T11:04:24;23.70;1.40
2174;DHT22;1093;51.424;11.764;2023-07-22T11:06:58;23.70;1.40
2174;DHT22;1093;51.424;11.764;2023-07-22T11:09:38;23.80;1.40
2174;DHT22;1093;51.424;11.764;2023-07-22T11:12:07;23.90;1.40
2174;DHT22;1093;51.424;11.764;2023-07-22T11:14:38;24.00;1.40
2174;DHT22;1093;51.424;11.764;2023-07-22T11:17:07;24.00;1.40
2174;DHT22;1093;51.424;11.764;2023-07-22T11:19:36;24.10;1.40
2174;DHT22;1093;51.424;11.764;2023-07-22T11:22:04;24.20;1.40
2174;DHT22;1093;51.424;11.764;2023-07-22T11:24:33;24.30;1.40
2174;DHT22;1093;51.424;11.764;2023-07-22T11:27:03;24.40;1.40
2174;DHT22;1093;51.424;11.764;2023-07-22T11:29:30;24.40;1.40
2174;DHT22;1093;51.424;11.764;2023-07-22T11:31:57;24.50;1.40
2174;DHT22;1093;51.424;11.764;2023-07-22T11:34:25;24.50;1.40
2174;DHT22;1093;51.424;11.764;2023-07-22T11:36:55;24.40;1.40
2174;DHT22;1093;51.424;11.764;2023-07-22T11:39:23;24.50;1.40
2174;DHT22;1093;51.424;11.764;2023-07-22T11:41:51;24.60;1.40
2174;DHT22;1093;51.424;11.764;2023-07-22T11:44:19;24.60;1.40
2174;DHT22;1093;51.424;11.764;2023-07-22T11:46:52;24.60;1.40
2174;DHT22;1093;51.424;11.764;2023-07-22T11:49:23;24.50;1.40
2174;DHT22;1093;51.424;11.764;2023-07-22T11:51:51;24.40;1.40
2174;DHT22;1093;51.424;11.764;2023-07-22T11:54:20;24.40;1.40
2174;DHT22;1093;51.424;11.764;2023-07-22T11:56:47;24.40;1.40
2174;DHT22;1093;51.424;11.764;2023-07-22T11:59:15;24.30;1.40
2174;DHT22;1093;51.424;11.764;2023-07-22T12:01:44;24.20;1.40
2174;DHT22;1093;51.424;11.764;2023-07-22T12:04:12;24.20;1.40
2174;DHT22;1093;51.424;11.764;2023-07-22T12:06:39;24.20;1.40
2174;DHT22;1093;51.424;11.764;2023-07-22T12:09:07;24.20;1.40
2174;DHT22;1093;51.424;11.764;2023-07-22T12:11:37;24.40;1.40
2174;DHT22;1093;51.424;11.764;2023-07-22T12:14:07;24.40;1.40
2174;DHT22;1093;51.424;11.764;2023-07-22T12:19:36;24.40;1.40
2174;DHT22;1093;51.424;11.764;2023-07-22T12:22:04;24.40;1.40
2174;DHT22;1093;51.424;11.764;2023-07-22T12:24:30;24.40;1.40
2174;DHT22;1093;51.424;11.764;2023-07-22T12:26:59;24.40;1.40
2174;DHT22;1093;51.424;11.764;2023-07-22T12:29:26;24.40;1.40
2174;DHT22;1093;51.424;11.764;2023-07-22T12:31:53;24.50;1.40
2174;DHT22;1093;51.424;11.764;2023-07-22T12:34:20;24.40;1.40
2174;DHT22;1093;51.424;11.764;2023-07-22T12:36:47;24.40;1.40
2174;DHT22;1093;51.424;11.764;2023-07-22T12:39:14;24.40;1.40
2174;DHT22;1093;51.424;11.764;2023-07-22T12:41:41;24.40;1.40
2174;DHT22;1093;51.424;11.764;2023-07-22T12:44:10;24.40;1.40
2174;DHT22;1093;51.424;11.764;2023-07-22T12:46:37;24.50;1.40
2174;DHT22;1093;51.424;11.764;2023-07-22T12:49:04;24.70;1.40
2174;DHT22;1093;51.424;11.764;2023-07-22T12:51:31;24.80;1.40
2174;DHT22;1093;51.424;11.764;2023-07-22T12:53:58;24.90;1.40
2174;DHT22;1093;51.424;11.764;2023-07-22T12:56:24;25.00;1.40
2174;DHT22;1093;51.424;11.764;2023-07-22T12:58:51;25.10;1.40
2174;DHT22;1093;51.424;11.764;2023-07-22T13:01:20;25.10;1.40
2174;DHT22;1093;51.424;11.764;2023-07-22T13:03:46;25.20;1.40
2174;DHT22;1093;51.424;11.764;2023-07-22T13:06:13;25.40;1.40
2174;DHT22;1093;51.424;11.764;2023-07-22T13:08:40;25.50;1.40
2174;DHT22;1093;51.424;11.764;2023-07-22T13:11:07;25.60;1.40
2174;DHT22;1093;51.424;11.764;2023-07-22T13:13:34;25.80;1.40
2174;DHT22;1093;51.424;11.764;2023-07-22T13:16:01;25.90;1.40
2174;DHT22;1093;51.424;11.764;2023-07-22T13:18:29;26.00;1.40
2174;DHT22;1093;51.424;11.764;2023-07-22T13:20:56;26.00;1.40
2174;DHT22;1093;51.424;11.764;2023-07-22T13:23:23;26.00;1.40
2174;DHT22;1093;51.424;11.764;2023-07-22T13:25:50;26.10;1.40
2174;DHT22;1093;51.424;11.764;2023-07-22T13:28:17;26.10;1.40
2174;DHT22;1093;51.424;11.764;2023-07-22T13:30:44;26.20;1.40
2174;DHT22;1093;51.424;11.764;2023-07-22T13:33:11;26.20;1.40
2174;DHT22;1093;51.424;11.764;2023-07-22T13:35:39;26.30;1.40
2174;DHT22;1093;51.424;11.764;2023-07-22T13:38:06;26.40;1.40
2174;DHT22;1093;51.424;11.764;2023-07-22T13:40:34;26.30;1.40
2174;DHT22;1093;51.424;11.764;2023-07-22T13:43:00;26.30;1.40
2174;DHT22;1093;51.424;11.764;2023-07-22T13:45:27;26.30;1.40
2174;DHT22;1093;51.424;11.764;2023-07-22T13:47:54;26.40;1.40
2174;DHT22;1093;51.424;11.764;2023-07-22T13:50:21;26.40;1.40
2174;DHT22;1093;51.424;11.764;2023-07-22T13:52:50;26.40;1.40
2174;DHT22;1093;51.424;11.764;2023-07-22T13:55:17;26.50;1.40
2174;DHT22;1093;51.424;11.764;2023-07-22T13:57:44;26.60;1.40
2174;DHT22;1093;51.424;11.764;2023-07-22T14:00:11;26.80;1.40
2174;DHT22;1093;51.424;11.764;2023-07-22T14:02:40;26.90;1.40
2174;DHT22;1093;51.424;11.764;2023-07-22T14:05:08;27.00;1.40
2174;DHT22;1093;51.424;11.764;2023-07-22T14:07:35;27.10;1.40
2174;DHT22;1093;51.424;11.764;2023-07-22T14:10:05;27.10;1.40
2174;DHT22;1093;51.424;11.764;2023-07-22T14:12:33;27.30;1.40
2174;DHT22;1093;51.424;11.764;2023-07-22T14:15:00;27.20;1.40
2174;DHT22;1093;51.424;11.764;2023-07-22T14:17:29;27.30;1.40
2174;DHT22;1093;51.424;11.764;2023-07-22T14:19:57;27.40;1.40
2174;DHT22;1093;51.424;11.764;2023-07-22T14:22:24;27.50;1.40
2174;DHT22;1093;51.424;11.764;2023-07-22T14:24:51;27.50;1.40
2174;DHT22;1093;51.424;11.764;2023-07-22T14:27:20;27.40;1.40
2174;DHT22;1093;51.424;11.764;2023-07-22T14:29:47;27.40;1.40
2174;DHT22;1093;51.424;11.764;2023-07-22T14:32:14;27.50;1.40
2174;DHT22;1093;51.424;11.764;2023-07-22T14:34:41;27.60;1.40
2174;DHT22;1093;51.424;11.764;2023-07-22T14:37:08;27.60;1.40
2174;DHT22;1093;51.424;11.764;2023-07-22T14:39:35;27.60;1.40
2174;DHT22;1093;51.424;11.764;2023-07-22T14:42:03;27.60;1.40
2174;DHT22;1093;51.424;11.764;2023-07-22T14:44:31;27.60;1.40
2174;DHT22;1093;51.424;11.764;2023-07-22T14:46:58;27.60;1.40
2174;DHT22;1093;51.424;11.764;2023-07-22T14:49:25;27.50;1.40
2174;DHT22;1093;51.424;11.764;2023-07-22T14:51:52;27.50;1.40
2174;DHT22;1093;51.424;11.764;2023-07-22T14:54:18;27.60;1.40
2174;DHT22;1093;51.424;11.764;2023-07-22T14:56:45;27.60;1.40
2174;DHT22;1093;51.424;11.764;2023-07-22T14:59:15;27.60;1.40
2174;DHT22;1093;51.424;11.764;2023-07-22T15:01:43;27.60;1.40
2174;DHT22;1093;51.424;11.764;2023-07-22T15:04:10;27.60;1.40
2174;DHT22;1093;51.424;11.764;2023-07-22T15:06:37;27.70;1.40
2174;DHT22;1093;51.424;11.764;2023-07-22T15:09:04;27.70;1.40
2174;DHT22;1093;51.424;11.764;2023-07-22T15:11:34;27.70;1.40
2174;DHT22;1093;51.424;11.764;2023-07-22T15:14:01;27.70;1.40
2174;DHT22;1093;51.424;11.764;2023-07-22T15:16:28;27.70;1.40
2174;DHT22;1093;51.424;11.764;2023-07-22T15:18:57;27.70;1.40
2174;DHT22;1093;51.424;11.764;2023-07-22T15:21:24;27.70;1.40
2174;DHT22;1093;51.424;11.764;2023-07-22T15:23:52;27.60;1.40
2174;DHT22;1093;51.424;11.764;2023-07-22T15:26:21;27.60;1.40
2174;DHT22;1093;51.424;11.764;2023-07-22T15:28:48;27.50;1.40
2174;DHT22;1093;51.424;11.764;2023-07-22T15:31:17;27.30;1.40
2174;DHT22;1093;51.424;11.764;2023-07-22T15:33:44;27.30;1.40
2174;DHT22;1093;51.424;11.764;2023-07-22T15:36:12;27.40;1.40
2174;DHT22;1093;51.424;11.764;2023-07-22T15:38:39;27.40;1.40
2174;DHT22;1093;51.424;11.764;2023-07-22T15:41:06;27.30;1.40
2174;DHT22;1093;51.424;11.764;2023-07-22T15:43:33;27.20;1.40
2174;DHT22;1093;51.424;11.764;2023-07-22T15:46:00;27.10;1.40
2174;DHT22;1093;51.424;11.764;2023-07-22T15:48:27;27.10;1.40
2174;DHT22;1093;51.424;11.764;2023-07-22T15:50:54;27.10;1.40
2174;DHT22;1093;51.424;11.764;2023-07-22T15:53:23;27.00;1.40
2174;DHT22;1093;51.424;11.764;2023-07-22T15:55:50;27.00;1.40
2174;DHT22;1093;51.424;11.764;2023-07-22T15:58:17;26.90;1.40
2174;DHT22;1093;51.424;11.764;2023-07-22T16:00:45;26.80;1.40
2174;DHT22;1093;51.424;11.764;2023-07-22T16:03:13;26.80;1.40
2174;DHT22;1093;51.424;11.764;2023-07-22T16:05:42;26.80;1.40
2174;DHT22;1093;51.424;11.764;2023-07-22T16:08:09;26.70;1.40
2174;DHT22;1093;51.424;11.764;2023-07-22T16:10:38;26.60;1.40